To NAV CANADA Home Page Login to a new session Search on AWWS site Feedback and Comments Disclaimer Vers la page française équivalente Tips FAQ What's new on the site To the Forecasts and Observations / NOTAM section To "File a Flight Plan" website Publications and other links Update of the User's profile FIC Telephone Numbers My Weather Data Folder Route Weather Data Regional Weather Data Local Weather Data To the Forecasts and Observations / NOTAM section
Request Generated 03/23/2017 at 00:09:25 UTC . Weather information available at that time is displayed.

METAR/TAF

QUEBEC/JEAN LESAGE INTL/QC    

METAR CYQB 230000Z 30008G16KT 15SM SKC M10/M22 A3025 RMK SLP253=
METAR CYQB 222300Z 31007G15KT 30SM FEW055 M10/M23 A3022 RMK CF1 CF TR
SLP241=
METAR CYQB 222200Z 31013G18KT 30SM FEW055 M09/M22 A3019 RMK CF1 CF TR
SLP231=

TAF CYQB 222338Z 2300/2324 31008G18KT P6SM FEW050
FM230100 30010KT P6SM SCT040
FM231100 25008KT P6SM FEW030
BECMG 2314/2316 26010G20KT
BECMG 2322/2324 25007KT
RMK NXT FCST BY 230600Z=
Your time UTC time
Weather data provided by Environment Canada and NAV CANADA